createdAt,value
2017-03-20T00:00:26.805Z,0
2017-03-20T00:01:07.444Z,0
2017-03-20T00:01:48.105Z,0
2017-03-20T00:02:29.785Z,0
2017-03-20T00:03:10.446Z,0
2017-03-20T00:03:51.079Z,0
2017-03-20T00:04:31.682Z,0
2017-03-20T00:05:12.273Z,0
2017-03-20T00:05:52.954Z,0
2017-03-20T00:06:34.609Z,0
2017-03-20T00:07:15.205Z,0
2017-03-20T00:07:55.762Z,0
2017-03-20T00:08:36.389Z,0
2017-03-20T00:09:17.031Z,0
2017-03-20T00:09:57.676Z,0
2017-03-20T00:10:38.337Z,0
2017-03-20T00:11:19.015Z,0
2017-03-20T00:11:59.655Z,0
2017-03-20T00:12:40.306Z,0
2017-03-20T00:13:20.950Z,0
2017-03-20T00:14:01.609Z,0
2017-03-20T00:14:42.186Z,0
2017-03-20T00:15:22.792Z,0
2017-03-20T00:16:03.362Z,0
2017-03-20T00:16:44.003Z,0
2017-03-20T00:17:24.600Z,0
2017-03-20T00:18:05.150Z,0
2017-03-20T00:18:45.754Z,0
2017-03-20T00:19:26.426Z,0
2017-03-20T00:20:07.077Z,0
2017-03-20T00:20:47.722Z,0
2017-03-20T00:21:28.385Z,0
2017-03-20T00:22:09.036Z,0
2017-03-20T00:22:49.678Z,0
2017-03-20T00:23:30.353Z,0
2017-03-20T00:24:10.972Z,0
2017-03-20T00:24:51.572Z,0
2017-03-20T00:25:32.129Z,0
2017-03-20T00:26:12.750Z,0
2017-03-20T00:26:53.392Z,0
2017-03-20T00:27:33.980Z,0
2017-03-20T00:28:14.532Z,0
2017-03-20T00:28:55.155Z,0
2017-03-20T00:29:36.808Z,0
2017-03-20T00:30:17.414Z,0
2017-03-20T00:30:57.990Z,0
2017-03-20T00:31:38.583Z,0
2017-03-20T00:32:19.234Z,0
2017-03-20T00:32:59.822Z,0
2017-03-20T00:33:40.370Z,0
2017-03-20T00:34:21.000Z,0
2017-03-20T00:35:02.669Z,0
2017-03-20T00:35:43.252Z,0
2017-03-20T00:36:23.811Z,0
2017-03-20T00:37:04.423Z,0
2017-03-20T00:37:45.078Z,0
2017-03-20T00:38:25.759Z,0
2017-03-20T00:39:06.306Z,0
2017-03-20T00:39:47.955Z,0
2017-03-20T00:40:28.609Z,0
2017-03-20T00:41:09.261Z,0
2017-03-20T00:41:49.918Z,0
2017-03-20T00:42:31.607Z,0
2017-03-20T00:43:12.243Z,0
2017-03-20T00:43:52.880Z,0
2017-03-20T00:44:33.552Z,0
2017-03-20T00:45:14.201Z,0
2017-03-20T00:45:54.855Z,0
2017-03-20T00:46:35.440Z,0
2017-03-20T00:47:16.006Z,0
2017-03-20T00:47:56.611Z,0
2017-03-20T00:48:37.263Z,0
2017-03-20T00:49:17.909Z,0
2017-03-20T00:49:58.567Z,0
2017-03-20T00:50:39.222Z,0
2017-03-20T00:51:19.858Z,0
2017-03-20T00:52:01.551Z,0
2017-03-20T00:52:42.201Z,0
2017-03-20T00:53:22.855Z,0
2017-03-20T00:54:03.507Z,0
2017-03-20T00:54:44.066Z,0
2017-03-20T00:55:24.700Z,0
2017-03-20T00:56:06.395Z,0
2017-03-20T00:56:46.948Z,0
2017-03-20T00:57:27.593Z,0
2017-03-20T00:58:08.230Z,0
2017-03-20T00:58:48.799Z,0
2017-03-20T00:59:29.451Z,0
2017-03-20T01:00:10.104Z,0
2017-03-20T01:00:50.755Z,0
2017-03-20T01:01:32.432Z,0
2017-03-20T01:02:13.072Z,0
2017-03-20T01:02:53.737Z,0
2017-03-20T01:03:35.411Z,0
2017-03-20T01:04:16.081Z,0
2017-03-20T01:04:56.724Z,0
2017-03-20T01:05:37.368Z,0
2017-03-20T01:06:18.018Z,0
2017-03-20T01:06:58.677Z,0
2017-03-20T01:07:39.328Z,0
2017-03-20T01:08:20.905Z,0
2017-03-20T01:09:01.569Z,0
2017-03-20T01:09:44.156Z,0
2017-03-20T01:10:24.803Z,0
2017-03-20T01:11:05.459Z,0
2017-03-20T01:11:47.134Z,0
2017-03-20T01:12:27.790Z,0
2017-03-20T01:13:08.465Z,0
2017-03-20T01:13:49.085Z,0
2017-03-20T01:14:30.670Z,0
2017-03-20T01:15:11.327Z,0
2017-03-20T01:15:51.973Z,0
2017-03-20T01:16:32.630Z,0
2017-03-20T01:17:13.289Z,0
2017-03-20T01:17:53.936Z,0
2017-03-20T01:18:35.613Z,0
2017-03-20T01:19:16.267Z,0
2017-03-20T01:19:56.842Z,0
2017-03-20T01:20:37.402Z,0
2017-03-20T01:21:18.016Z,0
2017-03-20T01:21:58.569Z,0
2017-03-20T01:22:39.223Z,0
2017-03-20T01:23:19.869Z,0
2017-03-20T01:24:00.450Z,0
2017-03-20T01:24:41.083Z,0
2017-03-20T01:25:23.704Z,0
2017-03-20T01:26:04.328Z,0
2017-03-20T01:26:46.008Z,0
2017-03-20T01:27:26.663Z,0
2017-03-20T01:28:07.309Z,0
2017-03-20T01:28:47.978Z,0
2017-03-20T01:29:28.614Z,0
2017-03-20T01:30:09.287Z,0
2017-03-20T01:30:49.929Z,0
2017-03-20T01:31:30.584Z,0
2017-03-20T01:32:11.231Z,0
2017-03-20T01:32:51.902Z,0
2017-03-20T01:33:32.528Z,0
2017-03-20T01:34:15.155Z,0
2017-03-20T01:34:57.838Z,0
2017-03-20T01:35:38.491Z,0
2017-03-20T01:36:19.191Z,0
2017-03-20T01:36:59.743Z,0
2017-03-20T01:37:40.364Z,0
2017-03-20T01:38:20.991Z,0
2017-03-20T01:39:01.589Z,0
2017-03-20T01:39:42.148Z,0
2017-03-20T01:40:22.743Z,0
2017-03-20T01:41:03.395Z,0
2017-03-20T01:41:44.058Z,0
2017-03-20T01:42:24.739Z,0
2017-03-20T01:43:06.391Z,0
2017-03-20T01:43:47.041Z,0
2017-03-20T01:44:27.698Z,0
2017-03-20T01:45:08.291Z,0
2017-03-20T01:45:48.848Z,0
2017-03-20T01:46:29.449Z,0
2017-03-20T01:47:10.124Z,0
2017-03-20T01:47:50.797Z,0
2017-03-20T01:48:31.354Z,0
2017-03-20T01:49:11.977Z,0
2017-03-20T01:49:52.620Z,0
2017-03-20T01:50:33.261Z,0
2017-03-20T01:51:13.912Z,0
2017-03-20T01:51:54.565Z,0
2017-03-20T01:52:35.223Z,0
2017-03-20T01:53:15.889Z,0
2017-03-20T01:53:56.524Z,0
2017-03-20T01:54:37.190Z,0
2017-03-20T01:55:17.846Z,0
2017-03-20T01:55:58.493Z,0
2017-03-20T01:56:39.138Z,0
2017-03-20T01:57:19.795Z,0
2017-03-20T01:58:00.442Z,0
2017-03-20T01:58:41.094Z,0
2017-03-20T01:59:21.744Z,0
2017-03-20T02:00:02.405Z,0
2017-03-20T02:00:43.082Z,0
2017-03-20T02:01:23.717Z,0
2017-03-20T02:02:04.365Z,0
2017-03-20T02:02:45.020Z,0
2017-03-20T02:03:25.670Z,0
2017-03-20T02:04:06.319Z,0
2017-03-20T02:04:46.916Z,0
2017-03-20T02:05:27.473Z,0
2017-03-20T02:06:08.070Z,0
2017-03-20T02:06:48.728Z,0
2017-03-20T02:07:30.342Z,0
2017-03-20T02:08:10.898Z,0
2017-03-20T02:08:51.507Z,0
2017-03-20T02:09:32.157Z,0
2017-03-20T02:10:12.760Z,0
2017-03-20T02:10:53.303Z,0
2017-03-20T02:11:33.908Z,0
2017-03-20T02:12:14.583Z,0
2017-03-20T02:12:55.263Z,0
2017-03-20T02:13:35.842Z,0
2017-03-20T02:14:16.419Z,0
2017-03-20T02:14:57.094Z,0
2017-03-20T02:15:37.740Z,0
2017-03-20T02:16:18.379Z,0
2017-03-20T02:16:59.955Z,0
2017-03-20T02:17:40.613Z,0
2017-03-20T02:18:21.276Z,0
2017-03-20T02:19:01.913Z,0
2017-03-20T02:19:42.563Z,0
2017-03-20T02:20:23.161Z,0
2017-03-20T02:21:03.710Z,0
2017-03-20T02:21:44.328Z,0
2017-03-20T02:22:25.004Z,0
2017-03-20T02:23:05.680Z,0
2017-03-20T02:23:46.284Z,0
2017-03-20T02:24:26.865Z,0
2017-03-20T02:25:07.481Z,0
2017-03-20T02:25:48.050Z,0
2017-03-20T02:26:28.694Z,0
2017-03-20T02:27:09.345Z,0
2017-03-20T02:27:49.922Z,0
2017-03-20T02:28:30.556Z,0
2017-03-20T02:29:11.213Z,0
2017-03-20T02:29:51.766Z,0
2017-03-20T02:30:32.396Z,0
2017-03-20T02:31:13.972Z,0
2017-03-20T02:31:54.569Z,0
2017-03-20T02:32:35.143Z,0
2017-03-20T02:33:15.726Z,0
2017-03-20T02:33:56.379Z,0
2017-03-20T02:34:36.984Z,0
2017-03-20T02:35:17.627Z,0
2017-03-20T02:35:58.284Z,0
2017-03-20T02:36:38.946Z,0
2017-03-20T02:37:19.588Z,0
2017-03-20T02:38:00.245Z,0
2017-03-20T02:38:40.894Z,0
2017-03-20T02:39:21.556Z,0
2017-03-20T02:40:02.206Z,0
2017-03-20T02:40:44.801Z,0
2017-03-20T02:41:25.452Z,0
2017-03-20T02:42:06.103Z,0
2017-03-20T02:42:46.766Z,0
2017-03-20T02:43:32.330Z,0
2017-03-20T02:44:12.975Z,0
2017-03-20T02:44:53.635Z,0
2017-03-20T02:45:34.283Z,0
2017-03-20T02:46:14.940Z,0
2017-03-20T02:46:55.588Z,0
2017-03-20T02:47:36.242Z,0
2017-03-20T02:48:16.893Z,0
2017-03-20T02:48:57.548Z,0
2017-03-20T02:49:38.205Z,0
2017-03-20T02:50:18.785Z,0
2017-03-20T02:50:59.357Z,0
2017-03-20T02:51:40.016Z,0
2017-03-20T02:52:20.613Z,0
2017-03-20T02:53:01.178Z,0
2017-03-20T02:53:43.832Z,0
2017-03-20T02:54:24.479Z,0
2017-03-20T02:55:05.173Z,0
2017-03-20T02:55:45.744Z,0
2017-03-20T02:56:26.321Z,0
2017-03-20T02:57:06.985Z,0
2017-03-20T02:57:47.579Z,0
2017-03-20T02:58:28.183Z,0
2017-03-20T02:59:08.849Z,0
2017-03-20T02:59:49.508Z,0
2017-03-20T03:00:30.148Z,0
2017-03-20T03:01:10.808Z,0
2017-03-20T03:01:51.545Z,0
2017-03-20T03:02:34.391Z,0
2017-03-20T03:03:15.055Z,0
2017-03-20T03:03:56.812Z,0
2017-03-20T03:04:37.489Z,0
2017-03-20T03:05:18.102Z,0
2017-03-20T03:05:58.769Z,0
2017-03-20T03:06:39.408Z,0
2017-03-20T03:07:20.054Z,0
2017-03-20T03:08:00.716Z,0
2017-03-20T03:08:41.359Z,0
2017-03-20T03:09:22.009Z,0
2017-03-20T03:10:02.672Z,0
2017-03-20T03:10:43.323Z,0
2017-03-20T03:11:23.975Z,0
2017-03-20T03:12:04.626Z,0
2017-03-20T03:12:45.279Z,0
2017-03-20T03:13:25.936Z,0
2017-03-20T03:14:06.593Z,0
2017-03-20T03:14:47.236Z,0
2017-03-20T03:15:27.816Z,0
2017-03-20T03:16:08.443Z,0
2017-03-20T03:16:49.101Z,0
2017-03-20T03:17:29.671Z,0
2017-03-20T03:18:10.293Z,0
2017-03-20T03:18:50.957Z,0
2017-03-20T03:19:38.210Z,0
2017-03-20T03:20:19.026Z,0
2017-03-20T03:20:59.670Z,0
2017-03-20T03:21:42.369Z,0
2017-03-20T03:22:23.062Z,0
2017-03-20T03:23:03.620Z,0
2017-03-20T03:23:45.261Z,0
2017-03-20T03:24:25.944Z,0
2017-03-20T03:25:06.594Z,0
2017-03-20T03:25:47.158Z,0
2017-03-20T03:26:27.795Z,0
2017-03-20T03:27:08.411Z,0
2017-03-20T03:27:49.010Z,0
2017-03-20T03:28:29.573Z,0
2017-03-20T03:29:10.158Z,0
2017-03-20T03:29:50.892Z,0
2017-03-20T03:30:32.533Z,0
2017-03-20T03:31:13.115Z,0
2017-03-20T03:31:53.692Z,0
2017-03-20T03:32:34.344Z,0
2017-03-20T03:33:14.945Z,0
2017-03-20T03:33:55.524Z,0
2017-03-20T03:34:36.128Z,0
2017-03-20T03:35:16.759Z,0
2017-03-20T03:35:58.438Z,0
2017-03-20T03:36:39.117Z,0
2017-03-20T03:37:19.733Z,0
2017-03-20T03:38:04.993Z,0
2017-03-20T03:38:47.599Z,0
2017-03-20T03:39:28.250Z,0
2017-03-20T03:40:08.947Z,0
2017-03-20T03:40:49.580Z,0
2017-03-20T03:41:30.235Z,0
2017-03-20T03:42:10.869Z,0
2017-03-20T03:42:51.520Z,0
2017-03-20T03:43:32.169Z,0
2017-03-20T03:44:12.845Z,0
2017-03-20T03:44:53.519Z,0
2017-03-20T03:45:34.086Z,0
2017-03-20T03:46:14.675Z,0
2017-03-20T03:46:55.355Z,0
2017-03-20T03:47:35.916Z,0
2017-03-20T03:48:16.529Z,0
2017-03-20T03:48:57.184Z,0
2017-03-20T03:49:37.750Z,0
2017-03-20T03:50:18.419Z,0
2017-03-20T03:50:59.052Z,0
2017-03-20T03:51:39.691Z,0
2017-03-20T03:52:20.360Z,0
2017-03-20T03:53:01.014Z,0
2017-03-20T03:53:41.649Z,0
2017-03-20T03:54:22.318Z,0
2017-03-20T03:55:02.969Z,0
2017-03-20T03:55:43.617Z,0
2017-03-20T03:56:24.266Z,0
2017-03-20T03:57:04.916Z,0
2017-03-20T03:57:45.617Z,0
2017-03-20T03:58:28.296Z,0
2017-03-20T03:59:08.983Z,0
2017-03-20T03:59:50.599Z,0
2017-03-20T04:00:36.094Z,0
2017-03-20T04:01:18.766Z,0
2017-03-20T04:01:59.421Z,0
2017-03-20T04:02:41.010Z,0
2017-03-20T04:03:21.654Z,0
2017-03-20T04:04:02.301Z,0
2017-03-20T04:04:45.002Z,0
2017-03-20T04:05:25.601Z,0
2017-03-20T04:06:06.158Z,0
2017-03-20T04:06:46.755Z,0
2017-03-20T04:07:27.408Z,0
2017-03-20T04:08:09.031Z,0
2017-03-20T04:08:49.611Z,0
2017-03-20T04:09:30.193Z,0
2017-03-20T04:10:10.839Z,0
2017-03-20T04:10:51.424Z,0
2017-03-20T04:11:32.039Z,0
2017-03-20T04:12:12.720Z,0
2017-03-20T04:12:53.289Z,0
2017-03-20T04:13:33.897Z,0
2017-03-20T04:14:15.489Z,0
2017-03-20T04:14:56.046Z,0
2017-03-20T04:15:36.679Z,0
2017-03-20T04:16:17.340Z,0
2017-03-20T04:16:57.980Z,0
2017-03-20T04:17:38.646Z,0
2017-03-20T04:18:19.293Z,0
2017-03-20T04:18:59.941Z,0
2017-03-20T04:19:40.597Z,0
2017-03-20T04:20:21.193Z,0
2017-03-20T04:21:01.753Z,0
2017-03-20T04:21:42.346Z,0
2017-03-20T04:22:23.022Z,0
2017-03-20T04:23:03.703Z,0
2017-03-20T04:23:44.259Z,0
2017-03-20T04:24:24.886Z,0
2017-03-20T04:25:05.527Z,0
2017-03-20T04:25:46.111Z,0
2017-03-20T04:26:26.681Z,0
2017-03-20T04:27:08.294Z,0
2017-03-20T04:27:49.990Z,0
2017-03-20T04:28:30.563Z,0
2017-03-20T04:29:11.124Z,0
2017-03-20T04:29:51.733Z,0
2017-03-20T04:30:33.413Z,0
2017-03-20T04:31:13.994Z,0
2017-03-20T04:31:54.562Z,0
2017-03-20T04:32:35.150Z,0
2017-03-20T04:33:15.805Z,0
2017-03-20T04:33:56.401Z,0
2017-03-20T04:34:36.965Z,0
2017-03-20T04:35:17.550Z,0
2017-03-20T04:35:58.234Z,0
2017-03-20T04:36:38.796Z,0
2017-03-20T04:37:19.440Z,0
2017-03-20T04:38:00.084Z,0
2017-03-20T04:38:40.656Z,0
2017-03-20T04:39:21.286Z,0
2017-03-20T04:40:01.926Z,0
2017-03-20T04:40:42.521Z,0
2017-03-20T04:41:23.107Z,0
2017-03-20T04:42:03.795Z,0
2017-03-20T04:42:44.457Z,0
2017-03-20T04:43:25.140Z,0
2017-03-20T04:44:05.693Z,0
2017-03-20T04:44:46.312Z,0
2017-03-20T04:45:26.959Z,0
2017-03-20T04:46:08.563Z,0
2017-03-20T04:46:49.117Z,0
2017-03-20T04:47:29.737Z,0
2017-03-20T04:48:10.381Z,0
2017-03-20T04:48:50.973Z,0
2017-03-20T04:49:31.538Z,0
2017-03-20T04:50:12.144Z,0
2017-03-20T04:50:52.778Z,0
2017-03-20T04:51:33.440Z,0
2017-03-20T04:52:14.090Z,0
2017-03-20T04:52:54.739Z,0
2017-03-20T04:53:37.355Z,0
2017-03-20T04:54:19.029Z,0
2017-03-20T04:54:59.689Z,0
2017-03-20T04:55:40.334Z,0
2017-03-20T04:56:22.011Z,0
2017-03-20T04:57:02.655Z,0
2017-03-20T04:57:43.321Z,0
2017-03-20T04:58:23.985Z,0
2017-03-20T04:59:04.613Z,0
2017-03-20T04:59:45.316Z,0
2017-03-20T05:00:25.930Z,0
2017-03-20T05:01:06.572Z,0
2017-03-20T05:01:47.143Z,0
2017-03-20T05:02:27.787Z,0
2017-03-20T05:03:08.452Z,0
2017-03-20T05:03:49.014Z,0
2017-03-20T05:04:29.634Z,0
2017-03-20T05:05:10.285Z,0
2017-03-20T05:05:50.947Z,0
2017-03-20T05:06:31.602Z,0
2017-03-20T05:07:12.254Z,0
2017-03-20T05:07:53.945Z,0
2017-03-20T05:08:34.581Z,0
2017-03-20T05:09:15.226Z,0
2017-03-20T05:09:55.896Z,0
2017-03-20T05:10:38.537Z,0
2017-03-20T05:11:19.139Z,0
2017-03-20T05:11:59.790Z,0
2017-03-20T05:12:40.446Z,0
2017-03-20T05:13:21.098Z,0
2017-03-20T05:14:02.678Z,0
2017-03-20T05:14:43.326Z,0
2017-03-20T05:15:25.003Z,0
2017-03-20T05:16:05.659Z,0
2017-03-20T05:16:48.251Z,0
2017-03-20T05:17:28.911Z,0
2017-03-20T05:18:10.580Z,0
2017-03-20T05:18:51.235Z,0
2017-03-20T05:19:31.893Z,0
2017-03-20T05:20:12.539Z,0
2017-03-20T05:20:53.195Z,0
2017-03-20T05:21:33.851Z,0
2017-03-20T05:22:14.503Z,0
2017-03-20T05:22:55.160Z,0
2017-03-20T05:23:35.834Z,0
2017-03-20T05:24:16.473Z,0
2017-03-20T05:24:58.182Z,0
2017-03-20T05:25:38.793Z,0
2017-03-20T05:26:21.430Z,0
2017-03-20T05:27:03.089Z,0
2017-03-20T05:27:43.734Z,0
2017-03-20T05:28:25.396Z,0
2017-03-20T05:29:06.045Z,0
2017-03-20T05:29:48.751Z,0
2017-03-20T05:30:29.401Z,0
2017-03-20T05:31:11.093Z,0
2017-03-20T05:31:51.749Z,0
2017-03-20T05:32:32.409Z,0
2017-03-20T05:33:13.052Z,0
2017-03-20T05:33:53.710Z,0
2017-03-20T05:34:34.358Z,0
2017-03-20T05:35:15.007Z,0
2017-03-20T05:35:55.596Z,0
2017-03-20T05:36:36.223Z,0
2017-03-20T05:37:16.868Z,0
2017-03-20T05:37:57.438Z,0
2017-03-20T05:38:39.097Z,0
2017-03-20T05:39:19.750Z,0
2017-03-20T05:40:00.329Z,0
2017-03-20T05:40:43.006Z,0
2017-03-20T05:41:23.606Z,0
2017-03-20T05:42:04.188Z,0
2017-03-20T05:42:44.845Z,0
2017-03-20T05:43:27.465Z,0
2017-03-20T05:44:09.148Z,0
2017-03-20T05:44:49.788Z,0
2017-03-20T05:45:30.436Z,0
2017-03-20T05:46:12.122Z,0
2017-03-20T05:46:53.793Z,0
2017-03-20T05:47:34.481Z,0
2017-03-20T05:48:15.076Z,0
2017-03-20T05:48:56.664Z,0
2017-03-20T05:49:38.349Z,0
2017-03-20T05:50:20.027Z,0
2017-03-20T05:51:00.661Z,0
2017-03-20T05:51:42.281Z,0
2017-03-20T05:52:22.840Z,0
2017-03-20T05:53:03.447Z,5
2017-03-20T05:53:49.003Z,5
2017-03-20T05:54:30.625Z,5
2017-03-20T05:55:11.183Z,5
2017-03-20T05:55:51.783Z,5
2017-03-20T05:56:33.370Z,5
2017-03-20T05:57:16.004Z,5
2017-03-20T05:57:56.582Z,5
2017-03-20T05:58:37.178Z,5
2017-03-20T05:59:18.846Z,5
2017-03-20T05:59:59.437Z,5
2017-03-20T06:00:40.043Z,5
2017-03-20T06:01:20.706Z,5
2017-03-20T06:02:02.392Z,5
2017-03-20T06:02:43.018Z,5
2017-03-20T06:03:24.620Z,5
2017-03-20T06:04:05.274Z,5
2017-03-20T06:04:45.905Z,5
2017-03-20T06:05:26.578Z,5
2017-03-20T06:06:07.238Z,5
2017-03-20T06:06:47.907Z,5
2017-03-20T06:07:28.646Z,5
2017-03-20T06:08:09.290Z,5
2017-03-20T06:08:49.971Z,5
2017-03-20T06:09:30.582Z,5
2017-03-20T06:10:11.245Z,5
2017-03-20T06:10:51.835Z,5
2017-03-20T06:11:32.414Z,5
2017-03-20T06:12:13.015Z,5
2017-03-20T06:12:53.665Z,5
2017-03-20T06:13:34.238Z,5
2017-03-20T06:14:14.835Z,5
2017-03-20T06:14:55.509Z,5
2017-03-20T06:15:36.167Z,5
2017-03-20T06:16:16.815Z,5
2017-03-20T06:16:57.462Z,5
2017-03-20T06:17:38.126Z,5
2017-03-20T06:18:18.777Z,5
2017-03-20T06:18:59.416Z,5
2017-03-20T06:19:40.091Z,5
2017-03-20T06:20:20.662Z,5
2017-03-20T06:21:01.277Z,5
2017-03-20T06:21:43.185Z,5
2017-03-20T06:22:23.857Z,5
2017-03-20T06:23:04.429Z,5
2017-03-20T06:23:45.029Z,5
2017-03-20T06:24:25.594Z,5
2017-03-20T06:25:06.223Z,5
2017-03-20T06:25:46.882Z,5
2017-03-20T06:26:27.469Z,10
2017-03-20T06:27:08.026Z,10
2017-03-20T06:27:48.634Z,10
2017-03-20T06:28:29.285Z,10
2017-03-20T06:29:10.043Z,10
2017-03-20T06:29:50.609Z,10
2017-03-20T06:30:31.339Z,10
2017-03-20T06:31:11.996Z,10
2017-03-20T06:31:52.566Z,10
2017-03-20T06:32:33.210Z,10
2017-03-20T06:33:13.983Z,10
2017-03-20T06:33:54.558Z,10
2017-03-20T06:34:35.160Z,15
2017-03-20T06:35:15.815Z,15
2017-03-20T06:35:56.413Z,15
2017-03-20T06:36:36.974Z,15
2017-03-20T06:37:17.559Z,15
2017-03-20T06:37:58.218Z,15
2017-03-20T06:38:38.919Z,15
2017-03-20T06:39:19.508Z,10
2017-03-20T06:40:00.075Z,10
2017-03-20T06:40:40.733Z,10
2017-03-20T06:41:21.383Z,10
2017-03-20T06:42:02.045Z,15
2017-03-20T06:42:42.696Z,15
2017-03-20T06:43:23.350Z,15
2017-03-20T06:44:04.021Z,15
2017-03-20T06:44:44.667Z,15
2017-03-20T06:45:25.239Z,15
2017-03-20T06:46:05.850Z,15
2017-03-20T06:46:46.506Z,15
2017-03-20T06:47:27.085Z,15
2017-03-20T06:48:07.713Z,20
2017-03-20T06:48:48.361Z,20
2017-03-20T06:49:28.935Z,20
2017-03-20T06:50:09.567Z,20
2017-03-20T06:50:50.237Z,25
2017-03-20T06:51:30.879Z,20
2017-03-20T06:52:11.521Z,20
2017-03-20T06:52:52.172Z,20
2017-03-20T06:53:32.839Z,20
2017-03-20T06:54:13.490Z,20
2017-03-20T06:54:54.145Z,20
2017-03-20T06:55:34.732Z,20
2017-03-20T06:56:15.342Z,20
2017-03-20T06:56:57.019Z,20
2017-03-20T06:57:37.592Z,20
2017-03-20T06:58:18.230Z,25
2017-03-20T06:58:58.881Z,25
2017-03-20T06:59:39.438Z,20
2017-03-20T07:00:20.082Z,20
2017-03-20T07:01:00.723Z,20
2017-03-20T07:01:41.376Z,15
2017-03-20T07:02:22.035Z,15
2017-03-20T07:03:02.695Z,15
2017-03-20T07:03:43.330Z,15
2017-03-20T07:04:23.991Z,20
2017-03-20T07:05:04.639Z,20
2017-03-20T07:05:49.848Z,20
2017-03-20T07:06:30.422Z,20
2017-03-20T07:07:11.001Z,20
2017-03-20T07:07:51.671Z,25
2017-03-20T07:08:32.255Z,25
2017-03-20T07:09:12.831Z,20
2017-03-20T07:09:53.433Z,20
2017-03-20T07:10:34.092Z,20
2017-03-20T07:11:14.764Z,20
2017-03-20T07:11:55.313Z,20
2017-03-20T07:12:35.935Z,20
2017-03-20T07:13:16.588Z,20
2017-03-20T07:13:57.178Z,20
2017-03-20T07:14:37.746Z,25
2017-03-20T07:15:18.349Z,25
2017-03-20T07:15:58.979Z,30
2017-03-20T07:16:39.590Z,35
2017-03-20T07:17:20.169Z,35
2017-03-20T07:18:00.736Z,40
2017-03-20T07:18:41.384Z,45
2017-03-20T07:19:21.983Z,50
2017-03-20T07:20:02.539Z,50
2017-03-20T07:20:43.160Z,50
2017-03-20T07:21:23.812Z,50
2017-03-20T07:22:04.486Z,55
2017-03-20T07:22:45.112Z,55
2017-03-20T07:23:25.781Z,50
2017-03-20T07:24:06.432Z,50
2017-03-20T07:24:47.078Z,50
2017-03-20T07:25:27.729Z,50
2017-03-20T07:26:08.377Z,55
2017-03-20T07:26:49.032Z,55
2017-03-20T07:27:29.689Z,55
2017-03-20T07:28:10.343Z,50
2017-03-20T07:28:51.003Z,50
2017-03-20T07:29:31.653Z,50
2017-03-20T07:30:12.295Z,55
2017-03-20T07:30:52.961Z,50
2017-03-20T07:31:33.604Z,50
2017-03-20T07:32:14.243Z,50
2017-03-20T07:32:54.911Z,50
2017-03-20T07:33:35.575Z,50
2017-03-20T07:34:16.222Z,45
2017-03-20T07:34:56.869Z,40
2017-03-20T07:35:37.450Z,40
2017-03-20T07:36:18.071Z,40
2017-03-20T07:36:58.726Z,45
2017-03-20T07:37:39.303Z,45
2017-03-20T07:38:19.936Z,35
2017-03-20T07:39:00.583Z,35
2017-03-20T07:39:41.145Z,30
2017-03-20T07:40:22.827Z,35
2017-03-20T07:41:04.516Z,40
2017-03-20T07:41:45.126Z,40
2017-03-20T07:42:25.791Z,50
2017-03-20T07:43:06.443Z,50
2017-03-20T07:43:47.093Z,60
2017-03-20T07:44:27.792Z,55
2017-03-20T07:45:08.423Z,50
2017-03-20T07:45:49.085Z,50
2017-03-20T07:46:29.668Z,50
2017-03-20T07:47:10.257Z,45
2017-03-20T07:47:50.913Z,50
2017-03-20T07:48:31.599Z,45
2017-03-20T07:49:12.157Z,45
2017-03-20T07:49:52.768Z,45
2017-03-20T07:50:33.414Z,50
2017-03-20T07:51:13.985Z,50
2017-03-20T07:51:54.638Z,50
2017-03-20T07:52:35.283Z,50
2017-03-20T07:53:15.855Z,50
2017-03-20T07:53:56.482Z,50
2017-03-20T07:54:37.140Z,55
2017-03-20T07:55:17.712Z,65
2017-03-20T07:55:58.369Z,70
2017-03-20T07:56:39.057Z,70
2017-03-20T07:57:19.749Z,70
2017-03-20T07:58:00.402Z,70
2017-03-20T08:00:54.321Z,70
2017-03-20T08:01:34.929Z,75
2017-03-20T08:02:15.616Z,75
2017-03-20T08:02:56.177Z,75
2017-03-20T08:03:36.787Z,75
2017-03-20T08:04:17.429Z,70
2017-03-20T08:04:58.126Z,70
2017-03-20T08:05:38.694Z,70
2017-03-20T08:06:19.286Z,65
2017-03-20T08:06:59.870Z,70
2017-03-20T08:07:40.531Z,70
2017-03-20T08:08:21.145Z,75
2017-03-20T08:09:01.707Z,75
2017-03-20T08:09:43.382Z,80
2017-03-20T08:10:24.024Z,80
2017-03-20T08:11:04.607Z,80
2017-03-20T08:11:45.235Z,80
2017-03-20T08:12:25.902Z,85
2017-03-20T08:13:06.577Z,85
2017-03-20T08:13:47.198Z,85
2017-03-20T08:14:27.833Z,80
2017-03-20T08:15:08.510Z,70
2017-03-20T08:15:49.155Z,70
2017-03-20T08:16:29.806Z,65
2017-03-20T08:17:10.466Z,65
2017-03-20T08:17:51.108Z,60
2017-03-20T08:18:31.784Z,55
2017-03-20T08:19:12.408Z,55
2017-03-20T08:19:53.060Z,50
2017-03-20T08:20:33.720Z,55
2017-03-20T08:21:14.396Z,55
2017-03-20T08:21:55.022Z,50
2017-03-20T08:22:35.681Z,50
2017-03-20T08:23:16.329Z,40
2017-03-20T08:23:56.982Z,40
2017-03-20T08:24:37.640Z,40
2017-03-20T08:25:18.293Z,40
2017-03-20T08:25:59.009Z,45
2017-03-20T08:26:39.565Z,45
2017-03-20T08:27:20.254Z,50
2017-03-20T08:28:00.923Z,65
2017-03-20T08:28:41.601Z,65
2017-03-20T08:29:22.163Z,70
2017-03-20T08:30:02.756Z,70
2017-03-20T08:30:43.407Z,75
2017-03-20T08:31:23.963Z,75
2017-03-20T08:32:04.610Z,75
2017-03-20T08:32:45.172Z,80
2017-03-20T08:33:25.754Z,80
2017-03-20T08:34:06.360Z,85
2017-03-20T08:34:46.924Z,80
2017-03-20T08:35:27.475Z,80
2017-03-20T08:36:08.127Z,75
2017-03-20T08:36:48.691Z,80
2017-03-20T08:37:29.295Z,80
2017-03-20T08:38:09.863Z,85
2017-03-20T08:38:50.456Z,85
2017-03-20T08:39:31.020Z,80
2017-03-20T08:40:11.628Z,85
2017-03-20T08:40:52.203Z,85
2017-03-20T08:41:32.762Z,80
2017-03-20T08:42:13.350Z,85
2017-03-20T08:42:53.927Z,75
2017-03-20T08:43:34.440Z,75
2017-03-20T08:44:15.024Z,95
2017-03-20T08:44:55.603Z,90
2017-03-20T08:45:36.177Z,85
2017-03-20T08:46:16.730Z,100
2017-03-20T08:46:57.304Z,95
2017-03-20T08:47:37.873Z,100
2017-03-20T08:48:18.441Z,95
2017-03-20T08:48:59.006Z,90
2017-03-20T08:49:39.586Z,100
2017-03-20T08:50:20.139Z,85
2017-03-20T08:51:00.720Z,85
2017-03-20T08:51:41.306Z,80
2017-03-20T08:52:21.889Z,85
2017-03-20T08:53:02.462Z,95
2017-03-20T08:53:43.030Z,85
2017-03-20T08:54:23.593Z,85
2017-03-20T08:55:04.178Z,105
2017-03-20T08:55:44.812Z,100
2017-03-20T08:56:25.359Z,105
2017-03-20T08:57:05.926Z,100
2017-03-20T08:57:46.662Z,100
2017-03-20T08:58:27.204Z,100
2017-03-20T08:59:07.758Z,95
2017-03-20T08:59:48.446Z,95
2017-03-20T09:00:29.073Z,90
2017-03-20T09:01:09.710Z,105
2017-03-20T09:01:50.275Z,100
2017-03-20T09:02:30.836Z,105
2017-03-20T09:03:11.405Z,115
2017-03-20T09:03:51.995Z,110
2017-03-20T09:04:32.566Z,120
2017-03-20T09:05:13.125Z,125
2017-03-20T09:05:53.694Z,130
2017-03-20T09:06:34.259Z,120
2017-03-20T09:07:14.839Z,115
2017-03-20T09:07:55.393Z,115
2017-03-20T09:08:35.970Z,115
2017-03-20T09:09:16.533Z,120
2017-03-20T09:09:57.102Z,120
2017-03-20T09:10:37.623Z,120
2017-03-20T09:11:18.178Z,140
2017-03-20T09:11:58.688Z,145
2017-03-20T09:12:39.282Z,130
2017-03-20T09:13:19.868Z,145
2017-03-20T09:14:00.436Z,140
2017-03-20T09:14:41.003Z,145
2017-03-20T09:15:21.612Z,130
2017-03-20T09:16:02.199Z,140
2017-03-20T09:16:42.758Z,130
2017-03-20T09:17:23.334Z,125
2017-03-20T09:18:03.893Z,130
2017-03-20T09:18:44.461Z,135
2017-03-20T09:19:25.038Z,130
2017-03-20T09:20:05.614Z,120
2017-03-20T09:20:46.209Z,135
2017-03-20T09:21:26.789Z,140
2017-03-20T09:22:07.391Z,155
2017-03-20T09:22:47.949Z,145
2017-03-20T09:23:28.516Z,125
2017-03-20T09:24:09.104Z,125
2017-03-20T09:24:49.671Z,125
2017-03-20T09:25:30.254Z,130
2017-03-20T09:26:10.772Z,120
2017-03-20T09:26:51.364Z,115
2017-03-20T09:27:32.947Z,105
2017-03-20T09:28:13.557Z,100
2017-03-20T09:28:54.096Z,100
2017-03-20T09:29:34.667Z,105
2017-03-20T09:30:15.238Z,105
2017-03-20T09:30:55.801Z,105
2017-03-20T09:31:36.320Z,110
2017-03-20T09:32:16.862Z,115
2017-03-20T09:32:57.401Z,110
2017-03-20T09:33:37.912Z,110
2017-03-20T09:34:18.433Z,100
2017-03-20T09:34:59.021Z,95
2017-03-20T09:35:39.587Z,100
2017-03-20T09:36:20.171Z,95
2017-03-20T09:37:00.689Z,95
2017-03-20T09:37:41.211Z,90
2017-03-20T09:38:21.794Z,90
2017-03-20T09:39:02.369Z,80
2017-03-20T09:39:42.943Z,85
2017-03-20T09:40:23.525Z,80
2017-03-20T09:41:04.052Z,75
2017-03-20T09:41:45.635Z,85
2017-03-20T09:42:26.203Z,95
2017-03-20T09:43:06.789Z,85
2017-03-20T09:43:47.361Z,80
2017-03-20T09:44:27.883Z,75
2017-03-20T09:45:08.454Z,95
2017-03-20T09:45:49.033Z,95
2017-03-20T09:46:29.549Z,90
2017-03-20T09:47:10.523Z,90
2017-03-20T09:47:51.078Z,90
2017-03-20T09:48:31.598Z,95
2017-03-20T09:49:12.179Z,90
2017-03-20T09:49:52.707Z,90
2017-03-20T09:50:33.297Z,80
2017-03-20T09:51:13.819Z,80
2017-03-20T09:51:54.408Z,80
2017-03-20T09:52:34.979Z,85
2017-03-20T09:53:15.529Z,90
2017-03-20T09:53:56.085Z,85
2017-03-20T09:54:36.655Z,85
2017-03-20T09:55:17.228Z,85
2017-03-20T09:55:57.791Z,80